sensor_id;sensor_type;location;lat;lon;timestamp;P1;durP1;ratioP1;P2;durP2;ratioP2
16246;SDS011;8231;50.866;7.944;2023-04-25T00:02:39;7.17;;;3.57;;
16246;SDS011;8231;50.866;7.944;2023-04-25T00:05:08;8.32;;;3.95;;
16246;SDS011;8231;50.866;7.944;2023-04-25T00:07:37;9.55;;;3.65;;
16246;SDS011;8231;50.866;7.944;2023-04-25T00:10:08;5.00;;;3.38;;
16246;SDS011;8231;50.866;7.944;2023-04-25T00:12:38;5.78;;;3.85;;
16246;SDS011;8231;50.866;7.944;2023-04-25T00:15:08;7.07;;;4.50;;
16246;SDS011;8231;50.866;7.944;2023-04-25T00:17:37;6.93;;;4.30;;
16246;SDS011;8231;50.866;7.944;2023-04-25T00:20:07;9.15;;;4.15;;
16246;SDS011;8231;50.866;7.944;2023-04-25T00:22:37;5.40;;;3.63;;
16246;SDS011;8231;50.866;7.944;2023-04-25T00:25:05;6.68;;;4.60;;
16246;SDS011;8231;50.866;7.944;2023-04-25T00:27:34;4.82;;;3.63;;
16246;SDS011;8231;50.866;7.944;2023-04-25T00:30:03;9.52;;;4.80;;
16246;SDS011;8231;50.866;7.944;2023-04-25T00:32:32;7.37;;;4.93;;
16246;SDS011;8231;50.866;7.944;2023-04-25T00:35:02;7.75;;;4.35;;
16246;SDS011;8231;50.866;7.944;2023-04-25T00:37:31;10.90;;;5.33;;
16246;SDS011;8231;50.866;7.944;2023-04-25T00:39:59;8.68;;;4.78;;
16246;SDS011;8231;50.866;7.944;2023-04-25T00:42:27;7.67;;;4.57;;
16246;SDS011;8231;50.866;7.944;2023-04-25T00:44:56;5.47;;;4.33;;
16246;SDS011;8231;50.866;7.944;2023-04-25T00:47:26;13.77;;;6.40;;
16246;SDS011;8231;50.866;7.944;2023-04-25T00:49:55;11.18;;;4.80;;
16246;SDS011;8231;50.866;7.944;2023-04-25T00:52:24;6.23;;;5.10;;
16246;SDS011;8231;50.866;7.944;2023-04-25T00:54:53;10.03;;;5.87;;
16246;SDS011;8231;50.866;7.944;2023-04-25T00:57:21;8.65;;;5.38;;
16246;SDS011;8231;50.866;7.944;2023-04-25T00:59:49;9.35;;;5.30;;
16246;SDS011;8231;50.866;7.944;2023-04-25T01:02:19;10.55;;;5.03;;
16246;SDS011;8231;50.866;7.944;2023-04-25T01:04:48;5.82;;;4.30;;
16246;SDS011;8231;50.866;7.944;2023-04-25T01:07:17;6.87;;;4.53;;
16246;SDS011;8231;50.866;7.944;2023-04-25T01:09:47;9.30;;;5.03;;
16246;SDS011;8231;50.866;7.944;2023-04-25T01:12:16;15.30;;;5.50;;
16246;SDS011;8231;50.866;7.944;2023-04-25T01:14:45;11.45;;;5.63;;
16246;SDS011;8231;50.866;7.944;2023-04-25T01:17:13;9.80;;;5.57;;
16246;SDS011;8231;50.866;7.944;2023-04-25T01:19:42;11.02;;;4.97;;
16246;SDS011;8231;50.866;7.944;2023-04-25T01:22:12;8.80;;;5.60;;
16246;SDS011;8231;50.866;7.944;2023-04-25T01:24:40;13.48;;;6.18;;
16246;SDS011;8231;50.866;7.944;2023-04-25T01:27:09;11.48;;;5.97;;
16246;SDS011;8231;50.866;7.944;2023-04-25T01:29:39;7.73;;;4.53;;
16246;SDS011;8231;50.866;7.944;2023-04-25T01:32:07;9.10;;;5.17;;
16246;SDS011;8231;50.866;7.944;2023-04-25T01:34:38;6.93;;;5.20;;
16246;SDS011;8231;50.866;7.944;2023-04-25T01:37:06;10.17;;;4.97;;
16246;SDS011;8231;50.866;7.944;2023-04-25T01:39:36;10.90;;;5.30;;
16246;SDS011;8231;50.866;7.944;2023-04-25T01:42:05;9.77;;;4.82;;
16246;SDS011;8231;50.866;7.944;2023-04-25T01:44:33;10.90;;;5.20;;
16246;SDS011;8231;50.866;7.944;2023-04-25T01:47:01;13.02;;;5.93;;
16246;SDS011;8231;50.866;7.944;2023-04-25T01:49:30;11.37;;;4.97;;
16246;SDS011;8231;50.866;7.944;2023-04-25T01:51:58;12.35;;;6.20;;
16246;SDS011;8231;50.866;7.944;2023-04-25T01:54:26;7.77;;;5.03;;
16246;SDS011;8231;50.866;7.944;2023-04-25T01:56:58;12.50;;;5.95;;
16246;SDS011;8231;50.866;7.944;2023-04-25T01:59:26;7.43;;;4.82;;
16246;SDS011;8231;50.866;7.944;2023-04-25T02:02:23;9.90;;;5.77;;
16246;SDS011;8231;50.866;7.944;2023-04-25T02:04:52;10.57;;;6.60;;
16246;SDS011;8231;50.866;7.944;2023-04-25T02:07:25;8.13;;;5.57;;
16246;SDS011;8231;50.866;7.944;2023-04-25T02:09:54;9.53;;;5.40;;
16246;SDS011;8231;50.866;7.944;2023-04-25T02:12:24;15.15;;;7.30;;
16246;SDS011;8231;50.866;7.944;2023-04-25T02:15:12;16.80;;;7.10;;
16246;SDS011;8231;50.866;7.944;2023-04-25T02:17:49;9.77;;;6.10;;
16246;SDS011;8231;50.866;7.944;2023-04-25T02:20:20;12.00;;;5.90;;
16246;SDS011;8231;50.866;7.944;2023-04-25T02:22:49;12.93;;;6.40;;
16246;SDS011;8231;50.866;7.944;2023-04-25T02:25:17;13.95;;;6.38;;
16246;SDS011;8231;50.866;7.944;2023-04-25T02:27:48;15.07;;;7.13;;
16246;SDS011;8231;50.866;7.944;2023-04-25T02:30:17;14.45;;;6.95;;
16246;SDS011;8231;50.866;7.944;2023-04-25T02:32:46;16.38;;;7.90;;
16246;SDS011;8231;50.866;7.944;2023-04-25T02:35:14;15.40;;;8.43;;
16246;SDS011;8231;50.866;7.944;2023-04-25T02:37:42;24.40;;;8.68;;
16246;SDS011;8231;50.866;7.944;2023-04-25T02:40:12;19.67;;;8.85;;
16246;SDS011;8231;50.866;7.944;2023-04-25T02:42:41;22.95;;;8.25;;
16246;SDS011;8231;50.866;7.944;2023-04-25T02:45:11;16.98;;;9.27;;
16246;SDS011;8231;50.866;7.944;2023-04-25T02:47:39;23.40;;;7.78;;
16246;SDS011;8231;50.866;7.944;2023-04-25T02:50:08;12.60;;;6.70;;
16246;SDS011;8231;50.866;7.944;2023-04-25T02:52:38;20.88;;;7.47;;
16246;SDS011;8231;50.866;7.944;2023-04-25T02:55:14;13.57;;;6.57;;
16246;SDS011;8231;50.866;7.944;2023-04-25T02:57:42;16.15;;;7.50;;
16246;SDS011;8231;50.866;7.944;2023-04-25T03:00:16;15.43;;;6.38;;
16246;SDS011;8231;50.866;7.944;2023-04-25T03:02:44;13.43;;;6.55;;
16246;SDS011;8231;50.866;7.944;2023-04-25T03:05:13;14.57;;;5.82;;
16246;SDS011;8231;50.866;7.944;2023-04-25T03:07:41;20.08;;;7.75;;
16246;SDS011;8231;50.866;7.944;2023-04-25T03:10:10;15.23;;;5.60;;
16246;SDS011;8231;50.866;7.944;2023-04-25T03:12:38;18.23;;;6.80;;
16246;SDS011;8231;50.866;7.944;2023-04-25T03:15:07;18.83;;;7.75;;
16246;SDS011;8231;50.866;7.944;2023-04-25T03:17:37;12.90;;;6.53;;
16246;SDS011;8231;50.866;7.944;2023-04-25T03:20:06;15.68;;;5.60;;
16246;SDS011;8231;50.866;7.944;2023-04-25T03:22:36;12.82;;;6.30;;
16246;SDS011;8231;50.866;7.944;2023-04-25T03:25:05;11.25;;;6.50;;
16246;SDS011;8231;50.866;7.944;2023-04-25T03:27:34;15.68;;;5.90;;
16246;SDS011;8231;50.866;7.944;2023-04-25T03:30:02;14.05;;;5.63;;
16246;SDS011;8231;50.866;7.944;2023-04-25T03:32:31;11.63;;;5.40;;
16246;SDS011;8231;50.866;7.944;2023-04-25T03:35:01;8.02;;;4.80;;
16246;SDS011;8231;50.866;7.944;2023-04-25T03:37:30;11.95;;;5.95;;
16246;SDS011;8231;50.866;7.944;2023-04-25T03:39:59;17.50;;;6.63;;
16246;SDS011;8231;50.866;7.944;2023-04-25T03:42:46;9.50;;;5.72;;
16246;SDS011;8231;50.866;7.944;2023-04-25T03:45:14;10.93;;;5.63;;
16246;SDS011;8231;50.866;7.944;2023-04-25T03:47:43;14.63;;;5.40;;
16246;SDS011;8231;50.866;7.944;2023-04-25T03:50:14;7.68;;;4.07;;
16246;SDS011;8231;50.866;7.944;2023-04-25T03:52:42;9.00;;;6.13;;
16246;SDS011;8231;50.866;7.944;2023-04-25T03:55:11;8.65;;;4.68;;
16246;SDS011;8231;50.866;7.944;2023-04-25T03:57:39;10.57;;;5.20;;
16246;SDS011;8231;50.866;7.944;2023-04-25T04:00:08;9.73;;;4.88;;
16246;SDS011;8231;50.866;7.944;2023-04-25T04:02:40;11.50;;;5.60;;
16246;SDS011;8231;50.866;7.944;2023-04-25T04:05:13;14.20;;;5.68;;
16246;SDS011;8231;50.866;7.944;2023-04-25T04:07:49;13.77;;;5.47;;
16246;SDS011;8231;50.866;7.944;2023-04-25T04:10:17;13.98;;;6.50;;
16246;SDS011;8231;50.866;7.944;2023-04-25T04:12:45;19.20;;;6.47;;
16246;SDS011;8231;50.866;7.944;2023-04-25T04:15:14;11.05;;;6.93;;
16246;SDS011;8231;50.866;7.944;2023-04-25T04:17:43;13.48;;;5.90;;
16246;SDS011;8231;50.866;7.944;2023-04-25T04:20:15;16.52;;;8.32;;
16246;SDS011;8231;50.866;7.944;2023-04-25T04:22:43;32.92;;;14.05;;
16246;SDS011;8231;50.866;7.944;2023-04-25T04:25:13;25.48;;;13.38;;
16246;SDS011;8231;50.866;7.944;2023-04-25T04:28:01;26.02;;;15.27;;
16246;SDS011;8231;50.866;7.944;2023-04-25T04:30:48;18.50;;;11.93;;
16246;SDS011;8231;50.866;7.944;2023-04-25T04:33:17;32.63;;;19.60;;
16246;SDS011;8231;50.866;7.944;2023-04-25T04:35:52;28.77;;;17.38;;
16246;SDS011;8231;50.866;7.944;2023-04-25T04:38:22;27.48;;;16.50;;
16246;SDS011;8231;50.866;7.944;2023-04-25T04:40:51;22.63;;;12.25;;
16246;SDS011;8231;50.866;7.944;2023-04-25T04:43:34;21.13;;;14.30;;
16246;SDS011;8231;50.866;7.944;2023-04-25T04:46:28;17.52;;;8.93;;
16246;SDS011;8231;50.866;7.944;2023-04-25T04:49:16;20.00;;;12.15;;
16246;SDS011;8231;50.866;7.944;2023-04-25T04:52:04;16.40;;;9.75;;
16246;SDS011;8231;50.866;7.944;2023-04-25T04:55:11;20.58;;;10.80;;
16246;SDS011;8231;50.866;7.944;2023-04-25T04:57:51;20.92;;;11.90;;
16246;SDS011;8231;50.866;7.944;2023-04-25T05:00:36;18.33;;;10.35;;
16246;SDS011;8231;50.866;7.944;2023-04-25T05:03:27;20.80;;;9.02;;
16246;SDS011;8231;50.866;7.944;2023-04-25T05:06:06;15.27;;;8.68;;
16246;SDS011;8231;50.866;7.944;2023-04-25T05:09:15;19.55;;;8.02;;
16246;SDS011;8231;50.866;7.944;2023-04-25T05:12:01;19.00;;;7.97;;
16246;SDS011;8231;50.866;7.944;2023-04-25T05:14:59;12.90;;;7.00;;
16246;SDS011;8231;50.866;7.944;2023-04-25T05:17:46;19.50;;;9.65;;
16246;SDS011;8231;50.866;7.944;2023-04-25T05:20:29;18.58;;;8.10;;
16246;SDS011;8231;50.866;7.944;2023-04-25T05:23:13;23.23;;;9.57;;
16246;SDS011;8231;50.866;7.944;2023-04-25T05:25:53;17.55;;;9.38;;
16246;SDS011;8231;50.866;7.944;2023-04-25T05:28:36;16.48;;;8.73;;
16246;SDS011;8231;50.866;7.944;2023-04-25T05:31:16;16.83;;;8.30;;
16246;SDS011;8231;50.866;7.944;2023-04-25T05:33:50;19.13;;;8.10;;
16246;SDS011;8231;50.866;7.944;2023-04-25T05:36:21;18.83;;;9.23;;
16246;SDS011;8231;50.866;7.944;2023-04-25T05:38:49;13.77;;;8.00;;
16246;SDS011;8231;50.866;7.944;2023-04-25T05:41:22;15.45;;;7.47;;
16246;SDS011;8231;50.866;7.944;2023-04-25T05:44:10;13.60;;;8.10;;
16246;SDS011;8231;50.866;7.944;2023-04-25T05:46:58;14.35;;;8.30;;
16246;SDS011;8231;50.866;7.944;2023-04-25T05:49:44;13.88;;;8.10;;
16246;SDS011;8231;50.866;7.944;2023-04-25T05:52:24;17.23;;;9.27;;
16246;SDS011;8231;50.866;7.944;2023-04-25T05:55:01;13.27;;;8.85;;
16246;SDS011;8231;50.866;7.944;2023-04-25T05:57:32;15.27;;;9.15;;
16246;SDS011;8231;50.866;7.944;2023-04-25T06:00:01;12.80;;;8.10;;
16246;SDS011;8231;50.866;7.944;2023-04-25T06:02:41;17.30;;;8.52;;
16246;SDS011;8231;50.866;7.944;2023-04-25T06:05:13;17.63;;;8.77;;
16246;SDS011;8231;50.866;7.944;2023-04-25T06:07:41;15.05;;;8.15;;
16246;SDS011;8231;50.866;7.944;2023-04-25T06:10:10;21.35;;;9.02;;
16246;SDS011;8231;50.866;7.944;2023-04-25T06:12:40;21.05;;;9.15;;
16246;SDS011;8231;50.866;7.944;2023-04-25T06:15:09;19.17;;;9.07;;
16246;SDS011;8231;50.866;7.944;2023-04-25T06:17:53;21.02;;;8.43;;
16246;SDS011;8231;50.866;7.944;2023-04-25T06:20:22;17.17;;;9.32;;
16246;SDS011;8231;50.866;7.944;2023-04-25T06:22:53;20.02;;;9.57;;
16246;SDS011;8231;50.866;7.944;2023-04-25T06:25:31;20.48;;;9.25;;
16246;SDS011;8231;50.866;7.944;2023-04-25T06:28:01;16.52;;;9.18;;
16246;SDS011;8231;50.866;7.944;2023-04-25T06:30:32;15.45;;;8.13;;
16246;SDS011;8231;50.866;7.944;2023-04-25T06:33:05;15.82;;;10.38;;
16246;SDS011;8231;50.866;7.944;2023-04-25T06:35:35;13.65;;;9.00;;
16246;SDS011;8231;50.866;7.944;2023-04-25T06:38:04;17.48;;;10.25;;
16246;SDS011;8231;50.866;7.944;2023-04-25T06:40:32;13.98;;;10.27;;
16246;SDS011;8231;50.866;7.944;2023-04-25T06:43:02;14.70;;;8.50;;
16246;SDS011;8231;50.866;7.944;2023-04-25T06:45:48;17.05;;;9.65;;
16246;SDS011;8231;50.866;7.944;2023-04-25T06:48:17;19.13;;;8.00;;
16246;SDS011;8231;50.866;7.944;2023-04-25T06:50:45;15.88;;;9.13;;
16246;SDS011;8231;50.866;7.944;2023-04-25T06:53:13;20.60;;;9.70;;
16246;SDS011;8231;50.866;7.944;2023-04-25T06:55:44;21.80;;;9.57;;
16246;SDS011;8231;50.866;7.944;2023-04-25T06:58:18;14.90;;;10.38;;
16246;SDS011;8231;50.866;7.944;2023-04-25T07:01:19;17.20;;;8.15;;
16246;SDS011;8231;50.866;7.944;2023-04-25T07:03:47;19.45;;;9.45;;
16246;SDS011;8231;50.866;7.944;2023-04-25T07:06:17;13.98;;;8.18;;
16246;SDS011;8231;50.866;7.944;2023-04-25T07:08:46;17.25;;;11.95;;
16246;SDS011;8231;50.866;7.944;2023-04-25T07:11:15;17.58;;;9.50;;
16246;SDS011;8231;50.866;7.944;2023-04-25T07:13:44;19.05;;;10.80;;
16246;SDS011;8231;50.866;7.944;2023-04-25T07:16:13;17.38;;;8.50;;
16246;SDS011;8231;50.866;7.944;2023-04-25T07:18:41;11.88;;;4.88;;
16246;SDS011;8231;50.866;7.944;2023-04-25T07:21:09;7.75;;;3.17;;
16246;SDS011;8231;50.866;7.944;2023-04-25T07:23:39;14.65;;;3.95;;
16246;SDS011;8231;50.866;7.944;2023-04-25T07:26:12;8.20;;;4.28;;
16246;SDS011;8231;50.866;7.944;2023-04-25T07:29:02;18.77;;;4.75;;
16246;SDS011;8231;50.866;7.944;2023-04-25T07:31:30;8.00;;;4.07;;
16246;SDS011;8231;50.866;7.944;2023-04-25T07:33:59;5.43;;;3.58;;
16246;SDS011;8231;50.866;7.944;2023-04-25T07:36:27;5.75;;;3.33;;
16246;SDS011;8231;50.866;7.944;2023-04-25T07:38:57;8.23;;;3.38;;
16246;SDS011;8231;50.866;7.944;2023-04-25T07:41:25;8.10;;;4.03;;
16246;SDS011;8231;50.866;7.944;2023-04-25T07:43:53;8.10;;;3.75;;
16246;SDS011;8231;50.866;7.944;2023-04-25T07:46:23;5.85;;;3.38;;
16246;SDS011;8231;50.866;7.944;2023-04-25T07:48:52;7.57;;;3.83;;
16246;SDS011;8231;50.866;7.944;2023-04-25T07:51:21;11.38;;;3.55;;
16246;SDS011;8231;50.866;7.944;2023-04-25T07:53:52;6.95;;;3.47;;
16246;SDS011;8231;50.866;7.944;2023-04-25T07:56:20;9.95;;;4.30;;
16246;SDS011;8231;50.866;7.944;2023-04-25T07:58:51;8.15;;;3.92;;
16246;SDS011;8231;50.866;7.944;2023-04-25T08:01:21;10.13;;;4.25;;
16246;SDS011;8231;50.866;7.944;2023-04-25T08:03:57;9.48;;;4.35;;
16246;SDS011;8231;50.866;7.944;2023-04-25T08:06:38;12.07;;;3.58;;
16246;SDS011;8231;50.866;7.944;2023-04-25T08:09:12;13.23;;;4.80;;
16246;SDS011;8231;50.866;7.944;2023-04-25T08:11:41;7.07;;;3.75;;
16246;SDS011;8231;50.866;7.944;2023-04-25T08:14:11;12.98;;;3.10;;
16246;SDS011;8231;50.866;7.944;2023-04-25T08:16:41;7.82;;;3.63;;
16246;SDS011;8231;50.866;7.944;2023-04-25T08:19:14;8.35;;;4.30;;
16246;SDS011;8231;50.866;7.944;2023-04-25T08:21:44;9.60;;;4.75;;
16246;SDS011;8231;50.866;7.944;2023-04-25T08:24:16;8.95;;;4.00;;
16246;SDS011;8231;50.866;7.944;2023-04-25T08:26:45;7.13;;;4.07;;
16246;SDS011;8231;50.866;7.944;2023-04-25T08:29:16;10.25;;;3.85;;
16246;SDS011;8231;50.866;7.944;2023-04-25T08:31:44;12.60;;;4.40;;
16246;SDS011;8231;50.866;7.944;2023-04-25T08:34:14;9.75;;;4.22;;
16246;SDS011;8231;50.866;7.944;2023-04-25T08:36:46;10.43;;;3.88;;
16246;SDS011;8231;50.866;7.944;2023-04-25T08:39:22;11.55;;;3.50;;
16246;SDS011;8231;50.866;7.944;2023-04-25T08:42:14;4.57;;;2.58;;
16246;SDS011;8231;50.866;7.944;2023-04-25T08:44:43;8.82;;;3.03;;
16246;SDS011;8231;50.866;7.944;2023-04-25T08:47:13;8.02;;;3.60;;
16246;SDS011;8231;50.866;7.944;2023-04-25T08:49:50;8.30;;;3.28;;
16246;SDS011;8231;50.866;7.944;2023-04-25T08:52:21;8.65;;;3.33;;
16246;SDS011;8231;50.866;7.944;2023-04-25T08:54:52;9.60;;;4.53;;
16246;SDS011;8231;50.866;7.944;2023-04-25T08:57:22;6.85;;;3.42;;
16246;SDS011;8231;50.866;7.944;2023-04-25T08:59:51;9.25;;;3.80;;
16246;SDS011;8231;50.866;7.944;2023-04-25T09:02:21;9.50;;;4.78;;
16246;SDS011;8231;50.866;7.944;2023-04-25T09:04:52;5.88;;;3.10;;
16246;SDS011;8231;50.866;7.944;2023-04-25T09:07:22;7.18;;;3.17;;
16246;SDS011;8231;50.866;7.944;2023-04-25T09:09:53;8.75;;;3.45;;
16246;SDS011;8231;50.866;7.944;2023-04-25T09:12:22;8.93;;;3.90;;
16246;SDS011;8231;50.866;7.944;2023-04-25T09:15:02;7.80;;;3.10;;
16246;SDS011;8231;50.866;7.944;2023-04-25T09:17:58;6.63;;;3.53;;
16246;SDS011;8231;50.866;7.944;2023-04-25T09:20:34;7.80;;;3.38;;
16246;SDS011;8231;50.866;7.944;2023-04-25T09:23:27;9.80;;;3.38;;
16246;SDS011;8231;50.866;7.944;2023-04-25T09:25:55;9.50;;;3.95;;
16246;SDS011;8231;50.866;7.944;2023-04-25T09:28:23;6.18;;;3.20;;
16246;SDS011;8231;50.866;7.944;2023-04-25T09:30:57;7.07;;;3.70;;
16246;SDS011;8231;50.866;7.944;2023-04-25T09:33:32;10.80;;;3.78;;
16246;SDS011;8231;50.866;7.944;2023-04-25T09:36:05;5.15;;;3.45;;
16246;SDS011;8231;50.866;7.944;2023-04-25T09:38:46;6.90;;;3.45;;
16246;SDS011;8231;50.866;7.944;2023-04-25T09:41:22;8.18;;;4.10;;
16246;SDS011;8231;50.866;7.944;2023-04-25T09:43:56;6.55;;;4.18;;
16246;SDS011;8231;50.866;7.944;2023-04-25T09:46:32;5.65;;;3.78;;
16246;SDS011;8231;50.866;7.944;2023-04-25T09:49:06;7.53;;;3.72;;
16246;SDS011;8231;50.866;7.944;2023-04-25T09:51:54;4.35;;;3.13;;
16246;SDS011;8231;50.866;7.944;2023-04-25T09:54:26;7.05;;;3.40;;
16246;SDS011;8231;50.866;7.944;2023-04-25T09:57:06;7.55;;;3.20;;
16246;SDS011;8231;50.866;7.944;2023-04-25T09:59:44;8.63;;;4.15;;
16246;SDS011;8231;50.866;7.944;2023-04-25T10:02:15;6.57;;;4.35;;
16246;SDS011;8231;50.866;7.944;2023-04-25T10:04:48;5.32;;;3.33;;
16246;SDS011;8231;50.866;7.944;2023-04-25T10:07:30;13.50;;;4.10;;
16246;SDS011;8231;50.866;7.944;2023-04-25T10:10:00;6.55;;;4.82;;
16246;SDS011;8231;50.866;7.944;2023-04-25T10:12:31;6.18;;;3.50;;
16246;SDS011;8231;50.866;7.944;2023-04-25T10:15:00;7.30;;;3.33;;
16246;SDS011;8231;50.866;7.944;2023-04-25T10:17:31;8.02;;;3.50;;
16246;SDS011;8231;50.866;7.944;2023-04-25T10:20:01;10.23;;;3.50;;
16246;SDS011;8231;50.866;7.944;2023-04-25T10:22:34;7.68;;;3.45;;
16246;SDS011;8231;50.866;7.944;2023-04-25T10:25:04;9.25;;;3.35;;
16246;SDS011;8231;50.866;7.944;2023-04-25T10:27:34;6.65;;;4.13;;
16246;SDS011;8231;50.866;7.944;2023-04-25T10:30:26;8.27;;;3.30;;
16246;SDS011;8231;50.866;7.944;2023-04-25T10:32:54;7.35;;;3.05;;
16246;SDS011;8231;50.866;7.944;2023-04-25T10:35:24;6.93;;;3.65;;
16246;SDS011;8231;50.866;7.944;2023-04-25T10:37:59;7.18;;;3.90;;
16246;SDS011;8231;50.866;7.944;2023-04-25T10:40:29;8.38;;;4.13;;
16246;SDS011;8231;50.866;7.944;2023-04-25T10:46:12;10.82;;;5.75;;
16246;SDS011;8231;50.866;7.944;2023-04-25T10:48:50;9.35;;;3.58;;
16246;SDS011;8231;50.866;7.944;2023-04-25T10:51:20;4.97;;;3.10;;
16246;SDS011;8231;50.866;7.944;2023-04-25T10:54:01;7.72;;;3.25;;
16246;SDS011;8231;50.866;7.944;2023-04-25T10:56:31;5.90;;;2.90;;
16246;SDS011;8231;50.866;7.944;2023-04-25T10:59:07;5.05;;;3.08;;
16246;SDS011;8231;50.866;7.944;2023-04-25T11:01:37;5.70;;;2.30;;
16246;SDS011;8231;50.866;7.944;2023-04-25T11:04:19;9.35;;;5.38;;
16246;SDS011;8231;50.866;7.944;2023-04-25T11:06:58;8.07;;;3.38;;
16246;SDS011;8231;50.866;7.944;2023-04-25T11:09:36;8.77;;;2.67;;
16246;SDS011;8231;50.866;7.944;2023-04-25T11:12:07;12.35;;;6.40;;
16246;SDS011;8231;50.866;7.944;2023-04-25T11:14:38;8.55;;;4.45;;
16246;SDS011;8231;50.866;7.944;2023-04-25T11:17:07;16.60;;;6.60;;
16246;SDS011;8231;50.866;7.944;2023-04-25T11:19:35;12.63;;;3.95;;
16246;SDS011;8231;50.866;7.944;2023-04-25T11:22:04;10.05;;;4.65;;
16246;SDS011;8231;50.866;7.944;2023-04-25T11:24:34;8.93;;;4.10;;
16246;SDS011;8231;50.866;7.944;2023-04-25T11:27:04;7.20;;;3.97;;
16246;SDS011;8231;50.866;7.944;2023-04-25T11:29:33;6.20;;;3.08;;
16246;SDS011;8231;50.866;7.944;2023-04-25T11:32:02;9.30;;;3.28;;
16246;SDS011;8231;50.866;7.944;2023-04-25T11:34:31;8.23;;;2.55;;
16246;SDS011;8231;50.866;7.944;2023-04-25T11:37:00;10.45;;;3.53;;
16246;SDS011;8231;50.866;7.944;2023-04-25T11:39:29;6.43;;;2.65;;
16246;SDS011;8231;50.866;7.944;2023-04-25T11:41:59;6.13;;;3.70;;
16246;SDS011;8231;50.866;7.944;2023-04-25T11:44:37;5.70;;;2.67;;
16246;SDS011;8231;50.866;7.944;2023-04-25T11:47:05;5.68;;;2.13;;
16246;SDS011;8231;50.866;7.944;2023-04-25T11:49:33;4.88;;;2.28;;
16246;SDS011;8231;50.866;7.944;2023-04-25T11:52:03;6.72;;;2.50;;
16246;SDS011;8231;50.866;7.944;2023-04-25T11:54:35;8.40;;;3.05;;
16246;SDS011;8231;50.866;7.944;2023-04-25T11:57:05;7.22;;;2.28;;
16246;SDS011;8231;50.866;7.944;2023-04-25T11:59:34;6.90;;;2.80;;
16246;SDS011;8231;50.866;7.944;2023-04-25T12:02:02;4.90;;;2.17;;
16246;SDS011;8231;50.866;7.944;2023-04-25T12:04:33;6.35;;;2.78;;
16246;SDS011;8231;50.866;7.944;2023-04-25T12:07:02;6.53;;;1.95;;
16246;SDS011;8231;50.866;7.944;2023-04-25T12:09:32;2.28;;;1.42;;
16246;SDS011;8231;50.866;7.944;2023-04-25T12:12:01;5.57;;;1.80;;
16246;SDS011;8231;50.866;7.944;2023-04-25T12:14:32;6.28;;;2.83;;
16246;SDS011;8231;50.866;7.944;2023-04-25T12:17:03;4.95;;;2.45;;
16246;SDS011;8231;50.866;7.944;2023-04-25T12:19:35;3.05;;;1.80;;
16246;SDS011;8231;50.866;7.944;2023-04-25T12:22:18;7.07;;;2.00;;
16246;SDS011;8231;50.866;7.944;2023-04-25T12:24:47;7.22;;;2.30;;
16246;SDS011;8231;50.866;7.944;2023-04-25T12:27:16;4.18;;;2.10;;
16246;SDS011;8231;50.866;7.944;2023-04-25T12:29:53;3.97;;;1.67;;
16246;SDS011;8231;50.866;7.944;2023-04-25T12:32:22;4.57;;;2.33;;
16246;SDS011;8231;50.866;7.944;2023-04-25T12:34:51;4.55;;;2.30;;
16246;SDS011;8231;50.866;7.944;2023-04-25T12:37:19;5.85;;;1.60;;
16246;SDS011;8231;50.866;7.944;2023-04-25T12:39:48;3.03;;;1.88;;
16246;SDS011;8231;50.866;7.944;2023-04-25T12:42:16;3.40;;;1.70;;
16246;SDS011;8231;50.866;7.944;2023-04-25T12:44:45;4.65;;;1.95;;
16246;SDS011;8231;50.866;7.944;2023-04-25T12:47:15;2.55;;;2.10;;
16246;SDS011;8231;50.866;7.944;2023-04-25T12:49:43;4.20;;;1.55;;
16246;SDS011;8231;50.866;7.944;2023-04-25T12:52:11;3.42;;;2.33;;
16246;SDS011;8231;50.866;7.944;2023-04-25T12:54:39;2.85;;;2.10;;
16246;SDS011;8231;50.866;7.944;2023-04-25T12:57:07;4.97;;;2.13;;
16246;SDS011;8231;50.866;7.944;2023-04-25T12:59:36;2.15;;;1.40;;
16246;SDS011;8231;50.866;7.944;2023-04-25T13:02:04;2.95;;;1.50;;
16246;SDS011;8231;50.866;7.944;2023-04-25T13:04:34;2.83;;;1.40;;
16246;SDS011;8231;50.866;7.944;2023-04-25T13:07:02;1.88;;;1.30;;
16246;SDS011;8231;50.866;7.944;2023-04-25T13:09:31;3.92;;;1.60;;
16246;SDS011;8231;50.866;7.944;2023-04-25T13:11:59;4.78;;;2.15;;
16246;SDS011;8231;50.866;7.944;2023-04-25T13:14:28;3.50;;;1.67;;
16246;SDS011;8231;50.866;7.944;2023-04-25T13:16:56;5.18;;;2.15;;
16246;SDS011;8231;50.866;7.944;2023-04-25T13:19:24;5.68;;;3.05;;
16246;SDS011;8231;50.866;7.944;2023-04-25T13:21:54;5.25;;;2.17;;
16246;SDS011;8231;50.866;7.944;2023-04-25T13:24:22;4.60;;;2.40;;
16246;SDS011;8231;50.866;7.944;2023-04-25T13:26:51;4.30;;;1.83;;
16246;SDS011;8231;50.866;7.944;2023-04-25T13:29:19;3.72;;;1.77;;
16246;SDS011;8231;50.866;7.944;2023-04-25T13:31:47;5.38;;;1.98;;
16246;SDS011;8231;50.866;7.944;2023-04-25T13:34:15;5.45;;;1.98;;
16246;SDS011;8231;50.866;7.944;2023-04-25T13:36:43;7.60;;;2.35;;
16246;SDS011;8231;50.866;7.944;2023-04-25T13:39:13;6.93;;;2.20;;
16246;SDS011;8231;50.866;7.944;2023-04-25T13:41:41;7.85;;;2.05;;
16246;SDS011;8231;50.866;7.944;2023-04-25T13:44:09;4.45;;;2.67;;
16246;SDS011;8231;50.866;7.944;2023-04-25T13:46:37;6.50;;;2.28;;
16246;SDS011;8231;50.866;7.944;2023-04-25T13:49:13;5.00;;;2.80;;
16246;SDS011;8231;50.866;7.944;2023-04-25T13:51:42;6.50;;;2.42;;
16246;SDS011;8231;50.866;7.944;2023-04-25T13:54:10;9.75;;;2.92;;
16246;SDS011;8231;50.866;7.944;2023-04-25T13:56:40;5.22;;;2.35;;
16246;SDS011;8231;50.866;7.944;2023-04-25T13:59:09;7.18;;;2.58;;
16246;SDS011;8231;50.866;7.944;2023-04-25T14:01:37;4.97;;;2.42;;
16246;SDS011;8231;50.866;7.944;2023-04-25T14:04:05;5.47;;;2.47;;
16246;SDS011;8231;50.866;7.944;2023-04-25T14:06:34;7.43;;;2.63;;
16246;SDS011;8231;50.866;7.944;2023-04-25T14:09:03;5.85;;;3.30;;
16246;SDS011;8231;50.866;7.944;2023-04-25T15:07:53;6.38;;;2.20;;
16246;SDS011;8231;50.866;7.944;2023-04-25T15:20:25;4.80;;;2.47;;
16246;SDS011;8231;50.866;7.944;2023-04-25T15:22:54;5.00;;;2.33;;
16246;SDS011;8231;50.866;7.944;2023-04-25T15:25:22;3.60;;;1.73;;
16246;SDS011;8231;50.866;7.944;2023-04-25T15:27:51;4.90;;;1.92;;
16246;SDS011;8231;50.866;7.944;2023-04-25T15:30:19;4.13;;;1.92;;
16246;SDS011;8231;50.866;7.944;2023-04-25T15:32:48;3.15;;;2.08;;
16246;SDS011;8231;50.866;7.944;2023-04-25T15:35:16;3.40;;;1.80;;
16246;SDS011;8231;50.866;7.944;2023-04-25T15:37:46;4.50;;;2.25;;
16246;SDS011;8231;50.866;7.944;2023-04-25T15:40:14;3.05;;;1.85;;
16246;SDS011;8231;50.866;7.944;2023-04-25T15:42:43;4.15;;;1.60;;
16246;SDS011;8231;50.866;7.944;2023-04-25T15:45:14;6.10;;;2.00;;
16246;SDS011;8231;50.866;7.944;2023-04-25T15:47:43;3.45;;;1.55;;
16246;SDS011;8231;50.866;7.944;2023-04-25T15:50:12;3.38;;;1.67;;
16246;SDS011;8231;50.866;7.944;2023-04-25T15:52:41;4.85;;;2.13;;
16246;SDS011;8231;50.866;7.944;2023-04-25T15:55:11;2.42;;;1.60;;
16246;SDS011;8231;50.866;7.944;2023-04-25T15:57:40;5.50;;;2.05;;
16246;SDS011;8231;50.866;7.944;2023-04-25T16:00:09;3.85;;;1.90;;
16246;SDS011;8231;50.866;7.944;2023-04-25T16:02:39;4.30;;;2.22;;
16246;SDS011;8231;50.866;7.944;2023-04-25T16:05:08;4.53;;;1.80;;
16246;SDS011;8231;50.866;7.944;2023-04-25T16:07:38;8.63;;;1.98;;
16246;SDS011;8231;50.866;7.944;2023-04-25T16:10:08;5.22;;;1.92;;
16246;SDS011;8231;50.866;7.944;2023-04-25T16:12:38;4.07;;;1.95;;
16246;SDS011;8231;50.866;7.944;2023-04-25T16:15:07;2.75;;;1.73;;
16246;SDS011;8231;50.866;7.944;2023-04-25T16:17:36;6.10;;;2.17;;
16246;SDS011;8231;50.866;7.944;2023-04-25T16:20:08;3.38;;;1.98;;
16246;SDS011;8231;50.866;7.944;2023-04-25T16:22:39;4.93;;;1.92;;
16246;SDS011;8231;50.866;7.944;2023-04-25T16:25:08;4.45;;;1.80;;
16246;SDS011;8231;50.866;7.944;2023-04-25T16:27:42;6.18;;;1.65;;
16246;SDS011;8231;50.866;7.944;2023-04-25T16:30:10;3.47;;;1.70;;
16246;SDS011;8231;50.866;7.944;2023-04-25T16:32:39;2.75;;;1.67;;
16246;SDS011;8231;50.866;7.944;2023-04-25T16:35:11;2.40;;;1.30;;